sensor_id;sensor_type;location;lat;lon;timestamp;P1;durP1;ratioP1;P2;durP2;ratioP2
68192;SDS011;55012;47.562;18.414;2024-03-29T00:02:02;6.07;;;2.90;;
68192;SDS011;55012;47.562;18.414;2024-03-29T00:04:27;4.68;;;2.85;;
68192;SDS011;55012;47.562;18.414;2024-03-29T00:06:53;6.82;;;2.70;;
68192;SDS011;55012;47.562;18.414;2024-03-29T00:09:18;5.65;;;3.17;;
68192;SDS011;55012;47.562;18.414;2024-03-29T00:11:44;3.65;;;2.10;;
68192;SDS011;55012;47.562;18.414;2024-03-29T00:14:09;5.03;;;2.40;;
68192;SDS011;55012;47.562;18.414;2024-03-29T00:16:35;5.05;;;2.65;;
68192;SDS011;55012;47.562;18.414;2024-03-29T00:19:00;3.63;;;2.20;;
68192;SDS011;55012;47.562;18.414;2024-03-29T00:21:25;5.22;;;2.50;;
68192;SDS011;55012;47.562;18.414;2024-03-29T00:23:51;3.63;;;1.98;;
68192;SDS011;55012;47.562;18.414;2024-03-29T00:26:16;7.95;;;3.42;;
68192;SDS011;55012;47.562;18.414;2024-03-29T00:28:41;8.48;;;3.83;;
68192;SDS011;55012;47.562;18.414;2024-03-29T00:31:07;5.20;;;2.90;;
68192;SDS011;55012;47.562;18.414;2024-03-29T00:33:32;5.72;;;2.70;;
68192;SDS011;55012;47.562;18.414;2024-03-29T00:35:58;7.75;;;3.72;;
68192;SDS011;55012;47.562;18.414;2024-03-29T00:38:23;5.20;;;2.40;;
68192;SDS011;55012;47.562;18.414;2024-03-29T00:40:48;3.92;;;2.20;;
68192;SDS011;55012;47.562;18.414;2024-03-29T00:43:14;4.57;;;2.13;;
68192;SDS011;55012;47.562;18.414;2024-03-29T00:45:40;4.18;;;2.00;;
68192;SDS011;55012;47.562;18.414;2024-03-29T00:48:05;2.78;;;1.35;;
68192;SDS011;55012;47.562;18.414;2024-03-29T00:50:31;3.15;;;1.40;;
68192;SDS011;55012;47.562;18.414;2024-03-29T00:52:57;3.42;;;1.40;;
68192;SDS011;55012;47.562;18.414;2024-03-29T00:55:22;2.63;;;1.60;;
68192;SDS011;55012;47.562;18.414;2024-03-29T00:57:48;2.80;;;1.30;;
68192;SDS011;55012;47.562;18.414;2024-03-29T01:00:13;2.40;;;1.40;;
68192;SDS011;55012;47.562;18.414;2024-03-29T01:02:39;2.60;;;1.40;;
68192;SDS011;55012;47.562;18.414;2024-03-29T01:05:05;2.60;;;1.33;;
68192;SDS011;55012;47.562;18.414;2024-03-29T01:07:31;3.67;;;1.77;;
68192;SDS011;55012;47.562;18.414;2024-03-29T01:09:56;2.72;;;1.63;;
68192;SDS011;55012;47.562;18.414;2024-03-29T01:12:22;3.05;;;1.60;;
68192;SDS011;55012;47.562;18.414;2024-03-29T01:14:47;3.53;;;1.92;;
68192;SDS011;55012;47.562;18.414;2024-03-29T01:17:12;3.15;;;1.88;;
68192;SDS011;55012;47.562;18.414;2024-03-29T01:19:38;2.70;;;1.55;;
68192;SDS011;55012;47.562;18.414;2024-03-29T01:22:03;2.55;;;1.45;;
68192;SDS011;55012;47.562;18.414;2024-03-29T01:24:29;2.30;;;1.20;;
68192;SDS011;55012;47.562;18.414;2024-03-29T01:26:54;4.25;;;2.25;;
68192;SDS011;55012;47.562;18.414;2024-03-29T01:29:20;2.55;;;1.40;;
68192;SDS011;55012;47.562;18.414;2024-03-29T01:31:45;3.05;;;1.40;;
68192;SDS011;55012;47.562;18.414;2024-03-29T01:34:10;3.05;;;1.33;;
68192;SDS011;55012;47.562;18.414;2024-03-29T01:36:36;2.85;;;1.30;;
68192;SDS011;55012;47.562;18.414;2024-03-29T01:39:01;2.65;;;1.55;;
68192;SDS011;55012;47.562;18.414;2024-03-29T01:41:27;2.28;;;1.40;;
68192;SDS011;55012;47.562;18.414;2024-03-29T01:43:53;2.97;;;1.50;;
68192;SDS011;55012;47.562;18.414;2024-03-29T01:46:24;4.95;;;1.67;;
68192;SDS011;55012;47.562;18.414;2024-03-29T01:48:51;2.50;;;1.42;;
68192;SDS011;55012;47.562;18.414;2024-03-29T01:51:17;2.25;;;1.50;;
68192;SDS011;55012;47.562;18.414;2024-03-29T01:53:44;2.25;;;1.30;;
68192;SDS011;55012;47.562;18.414;2024-03-29T01:56:11;2.10;;;1.30;;
68192;SDS011;55012;47.562;18.414;2024-03-29T01:58:38;2.00;;;1.20;;
68192;SDS011;55012;47.562;18.414;2024-03-29T02:01:04;2.45;;;1.40;;
68192;SDS011;55012;47.562;18.414;2024-03-29T02:03:31;2.42;;;1.27;;
68192;SDS011;55012;47.562;18.414;2024-03-29T02:05:57;1.88;;;1.15;;
68192;SDS011;55012;47.562;18.414;2024-03-29T02:08:24;2.05;;;1.20;;
68192;SDS011;55012;47.562;18.414;2024-03-29T02:10:50;1.95;;;1.25;;
68192;SDS011;55012;47.562;18.414;2024-03-29T02:13:16;2.33;;;1.30;;
68192;SDS011;55012;47.562;18.414;2024-03-29T02:15:41;2.58;;;1.30;;
68192;SDS011;55012;47.562;18.414;2024-03-29T02:18:07;2.03;;;1.00;;
68192;SDS011;55012;47.562;18.414;2024-03-29T02:20:33;2.75;;;1.42;;
68192;SDS011;55012;47.562;18.414;2024-03-29T02:25:29;3.30;;;1.88;;
68192;SDS011;55012;47.562;18.414;2024-03-29T02:27:55;4.53;;;1.98;;
68192;SDS011;55012;47.562;18.414;2024-03-29T02:30:21;4.70;;;2.10;;
68192;SDS011;55012;47.562;18.414;2024-03-29T02:32:47;3.78;;;2.05;;
68192;SDS011;55012;47.562;18.414;2024-03-29T02:35:13;3.40;;;2.10;;
68192;SDS011;55012;47.562;18.414;2024-03-29T02:37:38;5.22;;;2.05;;
68192;SDS011;55012;47.562;18.414;2024-03-29T02:40:04;4.97;;;1.98;;
68192;SDS011;55012;47.562;18.414;2024-03-29T02:42:30;3.80;;;1.90;;
68192;SDS011;55012;47.562;18.414;2024-03-29T02:44:56;4.10;;;2.47;;
68192;SDS011;55012;47.562;18.414;2024-03-29T02:47:22;3.20;;;1.55;;
68192;SDS011;55012;47.562;18.414;2024-03-29T02:49:47;6.20;;;3.10;;
68192;SDS011;55012;47.562;18.414;2024-03-29T02:52:13;5.15;;;2.80;;
68192;SDS011;55012;47.562;18.414;2024-03-29T02:54:39;3.22;;;1.67;;
68192;SDS011;55012;47.562;18.414;2024-03-29T02:57:05;5.10;;;2.30;;
68192;SDS011;55012;47.562;18.414;2024-03-29T02:59:31;3.35;;;1.60;;
68192;SDS011;55012;47.562;18.414;2024-03-29T03:01:56;2.60;;;1.40;;
68192;SDS011;55012;47.562;18.414;2024-03-29T03:04:21;1.80;;;0.90;;
68192;SDS011;55012;47.562;18.414;2024-03-29T03:06:47;2.25;;;1.05;;
68192;SDS011;55012;47.562;18.414;2024-03-29T03:09:12;2.00;;;0.75;;
68192;SDS011;55012;47.562;18.414;2024-03-29T03:11:56;1.63;;;1.00;;
68192;SDS011;55012;47.562;18.414;2024-03-29T03:14:21;1.92;;;1.15;;
68192;SDS011;55012;47.562;18.414;2024-03-29T03:16:47;1.63;;;0.90;;
68192;SDS011;55012;47.562;18.414;2024-03-29T03:19:12;2.00;;;1.10;;
68192;SDS011;55012;47.562;18.414;2024-03-29T03:21:37;1.88;;;0.90;;
68192;SDS011;55012;47.562;18.414;2024-03-29T03:24:03;2.30;;;0.98;;
68192;SDS011;55012;47.562;18.414;2024-03-29T03:26:29;1.40;;;0.80;;
68192;SDS011;55012;47.562;18.414;2024-03-29T03:28:55;2.97;;;0.70;;
68192;SDS011;55012;47.562;18.414;2024-03-29T03:31:20;1.45;;;0.80;;
68192;SDS011;55012;47.562;18.414;2024-03-29T03:33:46;1.60;;;0.80;;
68192;SDS011;55012;47.562;18.414;2024-03-29T03:36:11;4.45;;;0.80;;
68192;SDS011;55012;47.562;18.414;2024-03-29T03:38:36;2.08;;;1.13;;
68192;SDS011;55012;47.562;18.414;2024-03-29T03:41:03;0.88;;;0.70;;
68192;SDS011;55012;47.562;18.414;2024-03-29T03:43:29;6.30;;;1.25;;
68192;SDS011;55012;47.562;18.414;2024-03-29T03:45:59;2.10;;;0.95;;
68192;SDS011;55012;47.562;18.414;2024-03-29T03:48:26;1.58;;;0.82;;
68192;SDS011;55012;47.562;18.414;2024-03-29T03:50:51;1.10;;;0.80;;
68192;SDS011;55012;47.562;18.414;2024-03-29T03:53:16;1.67;;;0.75;;
68192;SDS011;55012;47.562;18.414;2024-03-29T03:55:42;2.10;;;0.82;;
68192;SDS011;55012;47.562;18.414;2024-03-29T03:58:07;0.82;;;0.60;;
68192;SDS011;55012;47.562;18.414;2024-03-29T04:00:32;1.88;;;0.70;;
68192;SDS011;55012;47.562;18.414;2024-03-29T04:02:58;2.22;;;1.40;;
68192;SDS011;55012;47.562;18.414;2024-03-29T04:05:24;1.77;;;0.80;;
68192;SDS011;55012;47.562;18.414;2024-03-29T04:07:52;1.63;;;1.08;;
68192;SDS011;55012;47.562;18.414;2024-03-29T04:10:18;1.05;;;0.70;;
68192;SDS011;55012;47.562;18.414;2024-03-29T04:12:43;2.15;;;1.20;;
68192;SDS011;55012;47.562;18.414;2024-03-29T04:15:09;2.40;;;1.27;;
68192;SDS011;55012;47.562;18.414;2024-03-29T04:17:34;2.40;;;1.25;;
68192;SDS011;55012;47.562;18.414;2024-03-29T04:20:01;5.32;;;1.90;;
68192;SDS011;55012;47.562;18.414;2024-03-29T04:22:27;2.30;;;1.55;;
68192;SDS011;55012;47.562;18.414;2024-03-29T04:24:53;10.77;;;4.40;;
68192;SDS011;55012;47.562;18.414;2024-03-29T04:27:18;13.68;;;6.55;;
68192;SDS011;55012;47.562;18.414;2024-03-29T04:29:43;13.07;;;5.90;;
68192;SDS011;55012;47.562;18.414;2024-03-29T04:32:09;13.20;;;5.60;;
68192;SDS011;55012;47.562;18.414;2024-03-29T04:34:34;13.57;;;5.45;;
68192;SDS011;55012;47.562;18.414;2024-03-29T04:36:59;12.57;;;5.20;;
68192;SDS011;55012;47.562;18.414;2024-03-29T04:39:25;10.63;;;4.78;;
68192;SDS011;55012;47.562;18.414;2024-03-29T04:41:50;14.23;;;5.47;;
68192;SDS011;55012;47.562;18.414;2024-03-29T04:44:23;13.20;;;5.63;;
68192;SDS011;55012;47.562;18.414;2024-03-29T04:46:49;14.57;;;5.85;;
68192;SDS011;55012;47.562;18.414;2024-03-29T04:49:15;12.65;;;5.53;;
68192;SDS011;55012;47.562;18.414;2024-03-29T04:51:42;18.25;;;7.75;;
68192;SDS011;55012;47.562;18.414;2024-03-29T04:54:08;29.77;;;11.55;;
68192;SDS011;55012;47.562;18.414;2024-03-29T04:56:34;44.35;;;14.18;;
68192;SDS011;55012;47.562;18.414;2024-03-29T04:59:01;56.78;;;16.38;;
68192;SDS011;55012;47.562;18.414;2024-03-29T05:01:27;75.50;;;21.20;;
68192;SDS011;55012;47.562;18.414;2024-03-29T05:03:52;122.55;;;34.15;;
68192;SDS011;55012;47.562;18.414;2024-03-29T05:06:18;96.50;;;27.45;;
68192;SDS011;55012;47.562;18.414;2024-03-29T05:08:43;67.82;;;18.85;;
68192;SDS011;55012;47.562;18.414;2024-03-29T05:11:08;43.50;;;13.07;;
68192;SDS011;55012;47.562;18.414;2024-03-29T05:13:36;37.20;;;12.05;;
68192;SDS011;55012;47.562;18.414;2024-03-29T05:16:01;30.77;;;10.05;;
68192;SDS011;55012;47.562;18.414;2024-03-29T05:18:26;24.10;;;7.78;;
68192;SDS011;55012;47.562;18.414;2024-03-29T05:20:52;22.48;;;7.38;;
68192;SDS011;55012;47.562;18.414;2024-03-29T05:23:17;18.67;;;7.20;;
68192;SDS011;55012;47.562;18.414;2024-03-29T05:25:43;22.05;;;7.55;;
68192;SDS011;55012;47.562;18.414;2024-03-29T05:28:09;20.25;;;7.38;;
68192;SDS011;55012;47.562;18.414;2024-03-29T05:30:34;17.48;;;6.00;;
68192;SDS011;55012;47.562;18.414;2024-03-29T05:33:01;10.50;;;4.28;;
68192;SDS011;55012;47.562;18.414;2024-03-29T05:35:28;7.20;;;3.25;;
68192;SDS011;55012;47.562;18.414;2024-03-29T05:37:53;7.57;;;3.00;;
68192;SDS011;55012;47.562;18.414;2024-03-29T05:40:19;4.88;;;2.13;;
68192;SDS011;55012;47.562;18.414;2024-03-29T05:42:50;6.63;;;2.70;;
68192;SDS011;55012;47.562;18.414;2024-03-29T05:45:51;8.40;;;2.90;;
68192;SDS011;55012;47.562;18.414;2024-03-29T05:48:07;13.68;;;3.30;;
68192;SDS011;55012;47.562;18.414;2024-03-29T05:50:32;9.45;;;3.03;;
68192;SDS011;55012;47.562;18.414;2024-03-29T05:52:58;13.60;;;4.00;;
68192;SDS011;55012;47.562;18.414;2024-03-29T05:55:26;10.70;;;3.40;;
68192;SDS011;55012;47.562;18.414;2024-03-29T05:57:52;5.25;;;2.28;;
68192;SDS011;55012;47.562;18.414;2024-03-29T06:00:18;6.55;;;2.15;;
68192;SDS011;55012;47.562;18.414;2024-03-29T06:02:43;5.70;;;2.00;;
68192;SDS011;55012;47.562;18.414;2024-03-29T06:05:13;3.58;;;1.88;;
68192;SDS011;55012;47.562;18.414;2024-03-29T06:07:38;4.45;;;1.77;;
68192;SDS011;55012;47.562;18.414;2024-03-29T06:10:04;3.45;;;1.83;;
68192;SDS011;55012;47.562;18.414;2024-03-29T06:12:32;4.53;;;2.25;;
68192;SDS011;55012;47.562;18.414;2024-03-29T06:14:58;5.15;;;2.53;;
68192;SDS011;55012;47.562;18.414;2024-03-29T06:17:42;8.45;;;4.05;;
68192;SDS011;55012;47.562;18.414;2024-03-29T06:20:07;10.43;;;4.47;;
68192;SDS011;55012;47.562;18.414;2024-03-29T06:22:33;6.38;;;3.28;;
68192;SDS011;55012;47.562;18.414;2024-03-29T06:24:58;6.45;;;2.85;;
68192;SDS011;55012;47.562;18.414;2024-03-29T06:27:26;5.53;;;2.83;;
68192;SDS011;55012;47.562;18.414;2024-03-29T06:29:51;6.47;;;2.97;;
68192;SDS011;55012;47.562;18.414;2024-03-29T06:32:17;8.48;;;3.13;;
68192;SDS011;55012;47.562;18.414;2024-03-29T06:34:43;4.40;;;2.55;;
68192;SDS011;55012;47.562;18.414;2024-03-29T06:37:10;6.07;;;2.90;;
68192;SDS011;55012;47.562;18.414;2024-03-29T06:39:35;5.43;;;2.72;;
68192;SDS011;55012;47.562;18.414;2024-03-29T06:42:01;9.02;;;3.88;;
68192;SDS011;55012;47.562;18.414;2024-03-29T06:44:27;24.05;;;8.48;;
68192;SDS011;55012;47.562;18.414;2024-03-29T06:46:52;35.55;;;12.48;;
68192;SDS011;55012;47.562;18.414;2024-03-29T06:49:17;36.25;;;12.93;;
68192;SDS011;55012;47.562;18.414;2024-03-29T06:51:43;16.80;;;7.25;;
68192;SDS011;55012;47.562;18.414;2024-03-29T06:54:08;10.50;;;4.90;;
68192;SDS011;55012;47.562;18.414;2024-03-29T06:56:34;9.95;;;4.53;;
68192;SDS011;55012;47.562;18.414;2024-03-29T06:59:00;8.07;;;4.53;;
68192;SDS011;55012;47.562;18.414;2024-03-29T07:01:25;7.85;;;4.07;;
68192;SDS011;55012;47.562;18.414;2024-03-29T07:03:51;6.88;;;3.45;;
68192;SDS011;55012;47.562;18.414;2024-03-29T07:06:16;6.45;;;3.45;;
68192;SDS011;55012;47.562;18.414;2024-03-29T07:08:41;6.53;;;3.60;;
68192;SDS011;55012;47.562;18.414;2024-03-29T07:11:07;10.50;;;4.55;;
68192;SDS011;55012;47.562;18.414;2024-03-29T07:13:32;10.43;;;5.07;;
68192;SDS011;55012;47.562;18.414;2024-03-29T07:15:58;24.23;;;11.07;;
68192;SDS011;55012;47.562;18.414;2024-03-29T07:18:24;26.08;;;11.18;;
68192;SDS011;55012;47.562;18.414;2024-03-29T07:20:50;31.15;;;13.90;;
68192;SDS011;55012;47.562;18.414;2024-03-29T07:23:16;30.30;;;13.88;;
68192;SDS011;55012;47.562;18.414;2024-03-29T07:25:43;26.65;;;13.05;;
68192;SDS011;55012;47.562;18.414;2024-03-29T07:28:09;22.90;;;11.38;;
68192;SDS011;55012;47.562;18.414;2024-03-29T07:30:35;14.52;;;7.30;;
68192;SDS011;55012;47.562;18.414;2024-03-29T07:33:02;19.40;;;9.43;;
68192;SDS011;55012;47.562;18.414;2024-03-29T07:35:28;7.00;;;4.45;;
68192;SDS011;55012;47.562;18.414;2024-03-29T07:37:53;7.25;;;3.80;;
68192;SDS011;55012;47.562;18.414;2024-03-29T07:40:19;5.10;;;3.15;;
68192;SDS011;55012;47.562;18.414;2024-03-29T07:42:44;5.82;;;4.05;;
68192;SDS011;55012;47.562;18.414;2024-03-29T07:45:09;6.28;;;3.58;;
68192;SDS011;55012;47.562;18.414;2024-03-29T07:47:35;5.15;;;3.25;;
68192;SDS011;55012;47.562;18.414;2024-03-29T07:50:00;5.00;;;3.20;;
68192;SDS011;55012;47.562;18.414;2024-03-29T07:52:25;6.57;;;3.10;;
68192;SDS011;55012;47.562;18.414;2024-03-29T07:54:51;6.82;;;3.58;;
68192;SDS011;55012;47.562;18.414;2024-03-29T07:57:16;5.90;;;2.90;;
68192;SDS011;55012;47.562;18.414;2024-03-29T07:59:42;5.18;;;3.00;;
68192;SDS011;55012;47.562;18.414;2024-03-29T08:02:08;3.85;;;2.20;;
68192;SDS011;55012;47.562;18.414;2024-03-29T08:04:33;3.78;;;2.42;;
68192;SDS011;55012;47.562;18.414;2024-03-29T08:06:59;3.95;;;2.20;;
68192;SDS011;55012;47.562;18.414;2024-03-29T08:09:25;5.72;;;2.60;;
68192;SDS011;55012;47.562;18.414;2024-03-29T08:11:50;5.80;;;3.10;;
68192;SDS011;55012;47.562;18.414;2024-03-29T08:14:16;5.38;;;2.40;;
68192;SDS011;55012;47.562;18.414;2024-03-29T08:16:41;6.97;;;2.90;;
68192;SDS011;55012;47.562;18.414;2024-03-29T08:19:07;4.07;;;2.60;;
68192;SDS011;55012;47.562;18.414;2024-03-29T08:21:33;4.00;;;2.05;;
68192;SDS011;55012;47.562;18.414;2024-03-29T08:23:58;3.55;;;1.73;;
68192;SDS011;55012;47.562;18.414;2024-03-29T08:26:25;2.80;;;1.35;;
68192;SDS011;55012;47.562;18.414;2024-03-29T08:28:50;13.80;;;6.07;;
68192;SDS011;55012;47.562;18.414;2024-03-29T08:31:16;2.65;;;1.73;;
68192;SDS011;55012;47.562;18.414;2024-03-29T08:33:41;2.95;;;1.80;;
68192;SDS011;55012;47.562;18.414;2024-03-29T08:36:08;2.47;;;1.60;;
68192;SDS011;55012;47.562;18.414;2024-03-29T08:38:34;5.85;;;3.28;;
68192;SDS011;55012;47.562;18.414;2024-03-29T08:41:00;3.25;;;1.75;;
68192;SDS011;55012;47.562;18.414;2024-03-29T08:43:26;3.63;;;1.73;;
68192;SDS011;55012;47.562;18.414;2024-03-29T08:45:51;5.72;;;2.75;;
68192;SDS011;55012;47.562;18.414;2024-03-29T08:48:17;3.35;;;1.90;;
68192;SDS011;55012;47.562;18.414;2024-03-29T08:50:42;1.25;;;0.80;;
68192;SDS011;55012;47.562;18.414;2024-03-29T08:53:08;0.98;;;0.60;;
68192;SDS011;55012;47.562;18.414;2024-03-29T08:55:33;3.17;;;1.20;;
68192;SDS011;55012;47.562;18.414;2024-03-29T08:57:59;1.08;;;0.80;;
68192;SDS011;55012;47.562;18.414;2024-03-29T09:00:26;2.70;;;1.00;;
68192;SDS011;55012;47.562;18.414;2024-03-29T09:02:52;1.20;;;0.70;;
68192;SDS011;55012;47.562;18.414;2024-03-29T09:05:17;2.38;;;1.30;;
68192;SDS011;55012;47.562;18.414;2024-03-29T09:07:43;1.10;;;0.80;;
68192;SDS011;55012;47.562;18.414;2024-03-29T09:10:08;4.43;;;0.80;;
68192;SDS011;55012;47.562;18.414;2024-03-29T09:12:33;3.75;;;1.75;;
68192;SDS011;55012;47.562;18.414;2024-03-29T09:14:59;1.85;;;0.80;;
68192;SDS011;55012;47.562;18.414;2024-03-29T09:17:25;4.25;;;2.40;;
68192;SDS011;55012;47.562;18.414;2024-03-29T09:19:51;0.70;;;0.50;;
68192;SDS011;55012;47.562;18.414;2024-03-29T09:22:17;1.23;;;0.65;;
68192;SDS011;55012;47.562;18.414;2024-03-29T09:24:42;1.20;;;0.68;;
68192;SDS011;55012;47.562;18.414;2024-03-29T09:27:08;0.90;;;0.50;;
68192;SDS011;55012;47.562;18.414;2024-03-29T09:29:33;1.73;;;0.75;;
68192;SDS011;55012;47.562;18.414;2024-03-29T09:31:59;1.80;;;0.57;;
68192;SDS011;55012;47.562;18.414;2024-03-29T09:34:27;1.33;;;0.47;;
68192;SDS011;55012;47.562;18.414;2024-03-29T09:36:52;0.73;;;0.57;;
68192;SDS011;55012;47.562;18.414;2024-03-29T09:39:18;0.77;;;0.57;;
68192;SDS011;55012;47.562;18.414;2024-03-29T09:41:44;2.28;;;0.93;;
68192;SDS011;55012;47.562;18.414;2024-03-29T09:44:10;1.67;;;0.70;;
68192;SDS011;55012;47.562;18.414;2024-03-29T09:46:36;3.30;;;0.70;;
68192;SDS011;55012;47.562;18.414;2024-03-29T09:49:05;1.80;;;0.70;;
68192;SDS011;55012;47.562;18.414;2024-03-29T09:51:37;2.08;;;0.70;;
68192;SDS011;55012;47.562;18.414;2024-03-29T09:54:04;3.20;;;1.00;;
68192;SDS011;55012;47.562;18.414;2024-03-29T09:56:33;2.75;;;0.85;;
68192;SDS011;55012;47.562;18.414;2024-03-29T09:58:59;2.08;;;0.93;;
68192;SDS011;55012;47.562;18.414;2024-03-29T10:01:26;2.17;;;0.70;;
68192;SDS011;55012;47.562;18.414;2024-03-29T10:03:52;1.17;;;0.65;;
68192;SDS011;55012;47.562;18.414;2024-03-29T10:06:18;0.98;;;0.70;;
68192;SDS011;55012;47.562;18.414;2024-03-29T10:08:47;1.30;;;0.80;;
68192;SDS011;55012;47.562;18.414;2024-03-29T10:11:13;1.33;;;0.90;;
68192;SDS011;55012;47.562;18.414;2024-03-29T10:13:43;1.58;;;0.80;;
68192;SDS011;55012;47.562;18.414;2024-03-29T10:16:10;4.50;;;1.00;;
68192;SDS011;55012;47.562;18.414;2024-03-29T10:18:37;1.55;;;0.90;;
68192;SDS011;55012;47.562;18.414;2024-03-29T10:21:06;2.53;;;0.90;;
68192;SDS011;55012;47.562;18.414;2024-03-29T10:23:32;3.33;;;1.05;;
68192;SDS011;55012;47.562;18.414;2024-03-29T10:26:00;1.85;;;0.90;;
68192;SDS011;55012;47.562;18.414;2024-03-29T10:28:29;1.73;;;0.80;;
68192;SDS011;55012;47.562;18.414;2024-03-29T10:31:00;2.25;;;1.10;;
68192;SDS011;55012;47.562;18.414;2024-03-29T10:33:28;2.15;;;0.85;;
68192;SDS011;55012;47.562;18.414;2024-03-29T10:35:58;2.75;;;1.13;;
68192;SDS011;55012;47.562;18.414;2024-03-29T10:38:25;2.72;;;1.05;;
68192;SDS011;55012;47.562;18.414;2024-03-29T10:40:53;3.25;;;1.20;;
68192;SDS011;55012;47.562;18.414;2024-03-29T10:43:19;4.60;;;1.05;;
68192;SDS011;55012;47.562;18.414;2024-03-29T10:45:46;5.07;;;1.00;;
68192;SDS011;55012;47.562;18.414;2024-03-29T10:48:14;3.95;;;1.50;;
68192;SDS011;55012;47.562;18.414;2024-03-29T10:50:41;3.83;;;1.63;;
68192;SDS011;55012;47.562;18.414;2024-03-29T10:53:07;4.30;;;1.13;;
68192;SDS011;55012;47.562;18.414;2024-03-29T10:55:35;3.75;;;1.40;;
68192;SDS011;55012;47.562;18.414;2024-03-29T10:58:01;3.17;;;1.45;;
68192;SDS011;55012;47.562;18.414;2024-03-29T11:00:29;3.33;;;1.15;;
68192;SDS011;55012;47.562;18.414;2024-03-29T11:03:20;6.28;;;1.30;;
68192;SDS011;55012;47.562;18.414;2024-03-29T11:05:52;4.88;;;1.75;;
68192;SDS011;55012;47.562;18.414;2024-03-29T11:08:26;5.55;;;1.70;;
68192;SDS011;55012;47.562;18.414;2024-03-29T11:10:56;9.07;;;1.48;;
68192;SDS011;55012;47.562;18.414;2024-03-29T11:16:05;6.28;;;2.70;;
68192;SDS011;55012;47.562;18.414;2024-03-29T11:18:32;9.13;;;3.13;;
68192;SDS011;55012;47.562;18.414;2024-03-29T11:20:59;5.57;;;2.13;;
68192;SDS011;55012;47.562;18.414;2024-03-29T11:23:27;12.50;;;6.38;;
68192;SDS011;55012;47.562;18.414;2024-03-29T11:25:53;5.63;;;1.48;;
68192;SDS011;55012;47.562;18.414;2024-03-29T11:28:48;11.38;;;4.50;;
68192;SDS011;55012;47.562;18.414;2024-03-29T11:31:13;6.68;;;2.00;;
68192;SDS011;55012;47.562;18.414;2024-03-29T11:38:51;3.15;;;1.75;;
68192;SDS011;55012;47.562;18.414;2024-03-29T11:41:21;3.85;;;2.00;;
68192;SDS011;55012;47.562;18.414;2024-03-29T11:43:51;4.68;;;1.50;;
68192;SDS011;55012;47.562;18.414;2024-03-29T11:46:18;5.68;;;1.92;;
68192;SDS011;55012;47.562;18.414;2024-03-29T11:48:44;5.78;;;1.90;;
68192;SDS011;55012;47.562;18.414;2024-03-29T11:51:15;6.43;;;1.88;;
68192;SDS011;55012;47.562;18.414;2024-03-29T11:53:42;6.88;;;2.00;;
68192;SDS011;55012;47.562;18.414;2024-03-29T11:56:08;6.93;;;1.60;;
68192;SDS011;55012;47.562;18.414;2024-03-29T11:58:34;4.63;;;1.45;;
68192;SDS011;55012;47.562;18.414;2024-03-29T12:01:00;8.88;;;1.70;;
68192;SDS011;55012;47.562;18.414;2024-03-29T12:03:30;6.82;;;3.10;;
68192;SDS011;55012;47.562;18.414;2024-03-29T12:05:57;8.25;;;2.53;;
68192;SDS011;55012;47.562;18.414;2024-03-29T12:08:24;7.25;;;1.60;;
68192;SDS011;55012;47.562;18.414;2024-03-29T12:10:50;5.40;;;1.42;;
68192;SDS011;55012;47.562;18.414;2024-03-29T12:13:16;5.50;;;1.70;;
68192;SDS011;55012;47.562;18.414;2024-03-29T12:15:42;8.32;;;2.83;;
68192;SDS011;55012;47.562;18.414;2024-03-29T12:18:07;7.90;;;1.88;;
68192;SDS011;55012;47.562;18.414;2024-03-29T12:20:33;5.97;;;1.40;;
68192;SDS011;55012;47.562;18.414;2024-03-29T12:23:02;4.68;;;1.50;;
68192;SDS011;55012;47.562;18.414;2024-03-29T12:25:29;5.60;;;1.50;;
68192;SDS011;55012;47.562;18.414;2024-03-29T12:27:55;6.15;;;1.60;;
68192;SDS011;55012;47.562;18.414;2024-03-29T12:30:21;8.23;;;2.03;;
68192;SDS011;55012;47.562;18.414;2024-03-29T12:32:46;6.05;;;1.30;;
68192;SDS011;55012;47.562;18.414;2024-03-29T12:35:12;7.40;;;2.13;;
68192;SDS011;55012;47.562;18.414;2024-03-29T12:37:49;7.93;;;1.60;;
68192;SDS011;55012;47.562;18.414;2024-03-29T12:40:17;5.93;;;1.70;;
68192;SDS011;55012;47.562;18.414;2024-03-29T12:42:48;10.07;;;1.83;;
68192;SDS011;55012;47.562;18.414;2024-03-29T12:45:13;8.05;;;2.13;;
68192;SDS011;55012;47.562;18.414;2024-03-29T12:47:39;5.05;;;1.65;;
68192;SDS011;55012;47.562;18.414;2024-03-29T12:50:05;7.15;;;1.73;;
68192;SDS011;55012;47.562;18.414;2024-03-29T12:52:37;8.88;;;1.80;;
68192;SDS011;55012;47.562;18.414;2024-03-29T12:55:04;7.65;;;1.50;;
68192;SDS011;55012;47.562;18.414;2024-03-29T12:57:31;9.15;;;2.60;;
68192;SDS011;55012;47.562;18.414;2024-03-29T12:59:56;12.25;;;4.05;;
68192;SDS011;55012;47.562;18.414;2024-03-29T13:02:21;4.90;;;1.50;;
68192;SDS011;55012;47.562;18.414;2024-03-29T13:04:48;6.88;;;1.85;;
68192;SDS011;55012;47.562;18.414;2024-03-29T13:07:13;6.40;;;2.17;;
68192;SDS011;55012;47.562;18.414;2024-03-29T13:09:40;7.35;;;1.95;;
68192;SDS011;55012;47.562;18.414;2024-03-29T13:12:08;6.93;;;2.00;;
68192;SDS011;55012;47.562;18.414;2024-03-29T13:14:34;8.07;;;1.85;;
68192;SDS011;55012;47.562;18.414;2024-03-29T13:16:59;6.75;;;1.60;;
68192;SDS011;55012;47.562;18.414;2024-03-29T13:19:24;8.82;;;2.05;;
68192;SDS011;55012;47.562;18.414;2024-03-29T13:21:50;7.60;;;1.90;;
68192;SDS011;55012;47.562;18.414;2024-03-29T13:24:15;6.95;;;1.55;;
68192;SDS011;55012;47.562;18.414;2024-03-29T13:26:41;6.80;;;1.80;;
68192;SDS011;55012;47.562;18.414;2024-03-29T13:29:06;5.57;;;1.50;;
68192;SDS011;55012;47.562;18.414;2024-03-29T13:31:31;7.40;;;2.38;;
68192;SDS011;55012;47.562;18.414;2024-03-29T13:33:58;6.25;;;2.05;;
68192;SDS011;55012;47.562;18.414;2024-03-29T13:36:37;6.35;;;2.03;;
68192;SDS011;55012;47.562;18.414;2024-03-29T13:39:07;5.43;;;1.63;;
68192;SDS011;55012;47.562;18.414;2024-03-29T13:41:33;4.57;;;1.58;;
68192;SDS011;55012;47.562;18.414;2024-03-29T13:44:02;7.60;;;1.58;;
68192;SDS011;55012;47.562;18.414;2024-03-29T13:46:34;5.75;;;1.67;;
68192;SDS011;55012;47.562;18.414;2024-03-29T13:49:00;5.40;;;1.25;;
68192;SDS011;55012;47.562;18.414;2024-03-29T13:51:26;7.75;;;1.75;;
68192;SDS011;55012;47.562;18.414;2024-03-29T13:53:51;12.65;;;4.57;;
68192;SDS011;55012;47.562;18.414;2024-03-29T13:56:19;6.03;;;1.77;;
68192;SDS011;55012;47.562;18.414;2024-03-29T13:58:44;5.70;;;1.60;;
68192;SDS011;55012;47.562;18.414;2024-03-29T14:01:10;7.55;;;1.60;;
68192;SDS011;55012;47.562;18.414;2024-03-29T14:03:35;7.65;;;1.85;;
68192;SDS011;55012;47.562;18.414;2024-03-29T14:06:00;4.75;;;2.00;;
68192;SDS011;55012;47.562;18.414;2024-03-29T14:08:26;7.93;;;1.80;;
68192;SDS011;55012;47.562;18.414;2024-03-29T14:10:52;7.50;;;1.48;;
68192;SDS011;55012;47.562;18.414;2024-03-29T14:13:18;4.15;;;1.35;;
68192;SDS011;55012;47.562;18.414;2024-03-29T14:15:44;3.42;;;1.17;;
68192;SDS011;55012;47.562;18.414;2024-03-29T14:18:10;3.95;;;1.30;;
68192;SDS011;55012;47.562;18.414;2024-03-29T14:20:35;7.53;;;1.40;;
68192;SDS011;55012;47.562;18.414;2024-03-29T14:23:00;7.22;;;1.33;;
68192;SDS011;55012;47.562;18.414;2024-03-29T14:25:31;4.40;;;1.40;;
68192;SDS011;55012;47.562;18.414;2024-03-29T14:27:56;5.20;;;1.42;;
68192;SDS011;55012;47.562;18.414;2024-03-29T14:30:24;4.40;;;1.23;;
68192;SDS011;55012;47.562;18.414;2024-03-29T14:32:52;4.38;;;1.30;;
68192;SDS011;55012;47.562;18.414;2024-03-29T14:35:19;4.43;;;1.40;;
68192;SDS011;55012;47.562;18.414;2024-03-29T14:37:44;6.07;;;1.42;;